sensor_id;sensor_type;location;lat;lon;timestamp;temperature;humidity
20654;DHT22;21083;50.898;4.902;2023-04-03T00:00:40;4.10;99.90
20654;DHT22;21083;50.898;4.902;2023-04-03T00:03:07;4.00;99.90
20654;DHT22;21083;50.898;4.902;2023-04-03T00:05:34;4.10;99.90
20654;DHT22;21083;50.898;4.902;2023-04-03T00:08:02;4.00;99.90
20654;DHT22;21083;50.898;4.902;2023-04-03T00:10:33;4.00;99.90
20654;DHT22;21083;50.898;4.902;2023-04-03T00:13:00;4.00;99.90
20654;DHT22;21083;50.898;4.902;2023-04-03T00:15:28;4.00;99.90
20654;DHT22;21083;50.898;4.902;2023-04-03T00:17:55;4.00;99.90
20654;DHT22;21083;50.898;4.902;2023-04-03T00:20:22;4.00;99.90
20654;DHT22;21083;50.898;4.902;2023-04-03T00:22:49;3.90;99.90
20654;DHT22;21083;50.898;4.902;2023-04-03T00:25:17;3.90;99.90
20654;DHT22;21083;50.898;4.902;2023-04-03T00:27:44;3.90;99.90
20654;DHT22;21083;50.898;4.902;2023-04-03T00:30:13;3.90;99.90
20654;DHT22;21083;50.898;4.902;2023-04-03T00:32:42;3.90;99.90
20654;DHT22;21083;50.898;4.902;2023-04-03T00:35:09;3.90;99.90
20654;DHT22;21083;50.898;4.902;2023-04-03T00:37:36;3.90;99.90
20654;DHT22;21083;50.898;4.902;2023-04-03T00:40:04;3.80;99.90
20654;DHT22;21083;50.898;4.902;2023-04-03T00:42:31;3.80;99.90
20654;DHT22;21083;50.898;4.902;2023-04-03T00:45:35;3.80;99.90
20654;DHT22;21083;50.898;4.902;2023-04-03T00:48:06;3.70;99.90
20654;DHT22;21083;50.898;4.902;2023-04-03T00:50:36;3.70;99.90
20654;DHT22;21083;50.898;4.902;2023-04-03T00:53:05;3.70;99.90
20654;DHT22;21083;50.898;4.902;2023-04-03T00:55:33;3.70;99.90
20654;DHT22;21083;50.898;4.902;2023-04-03T00:58:02;3.70;99.90
20654;DHT22;21083;50.898;4.902;2023-04-03T01:00:29;3.70;99.90
20654;DHT22;21083;50.898;4.902;2023-04-03T01:02:56;3.60;99.90
20654;DHT22;21083;50.898;4.902;2023-04-03T01:05:24;3.60;99.90
20654;DHT22;21083;50.898;4.902;2023-04-03T01:07:52;3.60;99.90
20654;DHT22;21083;50.898;4.902;2023-04-03T01:10:20;3.50;99.90
20654;DHT22;21083;50.898;4.902;2023-04-03T01:12:48;3.50;99.90
20654;DHT22;21083;50.898;4.902;2023-04-03T01:15:18;3.50;99.90
20654;DHT22;21083;50.898;4.902;2023-04-03T01:17:47;3.50;99.90
20654;DHT22;21083;50.898;4.902;2023-04-03T01:20:49;3.50;99.90
20654;DHT22;21083;50.898;4.902;2023-04-03T01:26:08;3.50;99.90
20654;DHT22;21083;50.898;4.902;2023-04-03T01:28:38;3.40;99.90
20654;DHT22;21083;50.898;4.902;2023-04-03T01:31:12;3.40;99.90
20654;DHT22;21083;50.898;4.902;2023-04-03T01:33:44;3.40;99.90
20654;DHT22;21083;50.898;4.902;2023-04-03T01:36:14;3.40;99.90
20654;DHT22;21083;50.898;4.902;2023-04-03T01:38:42;3.40;99.90
20654;DHT22;21083;50.898;4.902;2023-04-03T01:41:09;3.30;99.90
20654;DHT22;21083;50.898;4.902;2023-04-03T01:43:36;3.40;99.90
20654;DHT22;21083;50.898;4.902;2023-04-03T01:46:03;3.40;99.90
20654;DHT22;21083;50.898;4.902;2023-04-03T01:48:30;3.40;99.90
20654;DHT22;21083;50.898;4.902;2023-04-03T01:50:59;3.40;99.90
20654;DHT22;21083;50.898;4.902;2023-04-03T01:53:26;3.40;99.90
20654;DHT22;21083;50.898;4.902;2023-04-03T01:55:53;3.40;99.90
20654;DHT22;21083;50.898;4.902;2023-04-03T01:58:20;3.40;99.90
20654;DHT22;21083;50.898;4.902;2023-04-03T02:00:48;3.40;99.90
20654;DHT22;21083;50.898;4.902;2023-04-03T02:03:15;3.30;99.90
20654;DHT22;21083;50.898;4.902;2023-04-03T02:05:42;3.30;99.90
20654;DHT22;21083;50.898;4.902;2023-04-03T02:08:10;3.30;99.90
20654;DHT22;21083;50.898;4.902;2023-04-03T02:10:37;3.30;99.90
20654;DHT22;21083;50.898;4.902;2023-04-03T02:13:04;3.30;99.90
20654;DHT22;21083;50.898;4.902;2023-04-03T02:15:31;3.30;99.90
20654;DHT22;21083;50.898;4.902;2023-04-03T02:17:58;3.30;99.90
20654;DHT22;21083;50.898;4.902;2023-04-03T02:20:25;3.30;99.90
20654;DHT22;21083;50.898;4.902;2023-04-03T02:22:52;3.30;99.90
20654;DHT22;21083;50.898;4.902;2023-04-03T02:25:20;3.30;99.90
20654;DHT22;21083;50.898;4.902;2023-04-03T02:27:47;3.30;99.90
20654;DHT22;21083;50.898;4.902;2023-04-03T02:30:14;3.20;99.90
20654;DHT22;21083;50.898;4.902;2023-04-03T02:32:41;3.20;99.90
20654;DHT22;21083;50.898;4.902;2023-04-03T02:35:09;3.20;99.90
20654;DHT22;21083;50.898;4.902;2023-04-03T02:37:36;3.10;99.90
20654;DHT22;21083;50.898;4.902;2023-04-03T02:40:04;3.10;99.90
20654;DHT22;21083;50.898;4.902;2023-04-03T02:42:33;3.10;99.90
20654;DHT22;21083;50.898;4.902;2023-04-03T02:45:00;3.00;99.90
20654;DHT22;21083;50.898;4.902;2023-04-03T02:47:28;3.00;99.90
20654;DHT22;21083;50.898;4.902;2023-04-03T02:49:57;3.00;99.90
20654;DHT22;21083;50.898;4.902;2023-04-03T02:52:25;3.00;99.90
20654;DHT22;21083;50.898;4.902;2023-04-03T02:54:52;3.00;99.90
20654;DHT22;21083;50.898;4.902;2023-04-03T02:57:20;2.90;99.90
20654;DHT22;21083;50.898;4.902;2023-04-03T02:59:49;2.90;99.90
20654;DHT22;21083;50.898;4.902;2023-04-03T03:02:16;2.90;99.90
20654;DHT22;21083;50.898;4.902;2023-04-03T03:04:43;2.90;99.90
20654;DHT22;21083;50.898;4.902;2023-04-03T03:07:10;2.80;99.90
20654;DHT22;21083;50.898;4.902;2023-04-03T03:09:37;2.80;99.90
20654;DHT22;21083;50.898;4.902;2023-04-03T03:12:04;2.80;99.90
20654;DHT22;21083;50.898;4.902;2023-04-03T03:14:31;2.70;99.90
20654;DHT22;21083;50.898;4.902;2023-04-03T03:16:59;2.70;99.90
20654;DHT22;21083;50.898;4.902;2023-04-03T03:19:27;2.70;99.90
20654;DHT22;21083;50.898;4.902;2023-04-03T03:21:54;2.70;99.90
20654;DHT22;21083;50.898;4.902;2023-04-03T03:24:22;2.70;99.90
20654;DHT22;21083;50.898;4.902;2023-04-03T03:26:51;2.70;99.90
20654;DHT22;21083;50.898;4.902;2023-04-03T03:29:19;2.70;99.90
20654;DHT22;21083;50.898;4.902;2023-04-03T03:31:47;2.70;99.90
20654;DHT22;21083;50.898;4.902;2023-04-03T03:34:16;2.60;99.90
20654;DHT22;21083;50.898;4.902;2023-04-03T03:36:43;2.60;99.90
20654;DHT22;21083;50.898;4.902;2023-04-03T03:39:10;2.60;99.90
20654;DHT22;21083;50.898;4.902;2023-04-03T03:41:37;2.60;99.90
20654;DHT22;21083;50.898;4.902;2023-04-03T03:44:05;2.60;99.90
20654;DHT22;21083;50.898;4.902;2023-04-03T03:46:31;2.60;99.90
20654;DHT22;21083;50.898;4.902;2023-04-03T03:48:58;2.60;99.90
20654;DHT22;21083;50.898;4.902;2023-04-03T03:51:28;2.50;99.90
20654;DHT22;21083;50.898;4.902;2023-04-03T03:53:55;2.50;99.90
20654;DHT22;21083;50.898;4.902;2023-04-03T03:56:22;2.50;99.90
20654;DHT22;21083;50.898;4.902;2023-04-03T03:58:49;2.50;99.90
20654;DHT22;21083;50.898;4.902;2023-04-03T04:01:18;2.50;99.90
20654;DHT22;21083;50.898;4.902;2023-04-03T04:03:44;2.50;99.90
20654;DHT22;21083;50.898;4.902;2023-04-03T04:06:11;2.50;99.90
20654;DHT22;21083;50.898;4.902;2023-04-03T04:08:42;2.40;99.90
20654;DHT22;21083;50.898;4.902;2023-04-03T04:11:10;2.40;99.90
20654;DHT22;21083;50.898;4.902;2023-04-03T04:13:37;2.40;99.90
20654;DHT22;21083;50.898;4.902;2023-04-03T04:16:04;2.40;99.90
20654;DHT22;21083;50.898;4.902;2023-04-03T04:18:31;2.40;99.90
20654;DHT22;21083;50.898;4.902;2023-04-03T04:21:00;2.40;99.90
20654;DHT22;21083;50.898;4.902;2023-04-03T04:23:28;2.40;99.90
20654;DHT22;21083;50.898;4.902;2023-04-03T04:25:56;2.30;99.90
20654;DHT22;21083;50.898;4.902;2023-04-03T04:28:23;2.30;99.90
20654;DHT22;21083;50.898;4.902;2023-04-03T04:30:50;2.30;99.90
20654;DHT22;21083;50.898;4.902;2023-04-03T04:33:17;2.30;99.90
20654;DHT22;21083;50.898;4.902;2023-04-03T04:35:44;2.30;99.90
20654;DHT22;21083;50.898;4.902;2023-04-03T04:38:10;2.20;99.90
20654;DHT22;21083;50.898;4.902;2023-04-03T04:40:37;2.20;99.90
20654;DHT22;21083;50.898;4.902;2023-04-03T04:43:06;2.20;99.90
20654;DHT22;21083;50.898;4.902;2023-04-03T04:45:33;2.20;99.90
20654;DHT22;21083;50.898;4.902;2023-04-03T04:48:00;2.20;99.90
20654;DHT22;21083;50.898;4.902;2023-04-03T04:50:27;2.20;99.90
20654;DHT22;21083;50.898;4.902;2023-04-03T04:52:54;2.20;99.90
20654;DHT22;21083;50.898;4.902;2023-04-03T04:55:21;2.20;99.90
20654;DHT22;21083;50.898;4.902;2023-04-03T04:57:48;2.20;99.90
20654;DHT22;21083;50.898;4.902;2023-04-03T05:00:17;2.20;99.90
20654;DHT22;21083;50.898;4.902;2023-04-03T05:02:44;2.20;99.90
20654;DHT22;21083;50.898;4.902;2023-04-03T05:05:11;2.20;99.90
20654;DHT22;21083;50.898;4.902;2023-04-03T05:07:38;2.20;99.90
20654;DHT22;21083;50.898;4.902;2023-04-03T05:10:07;2.20;99.90
20654;DHT22;21083;50.898;4.902;2023-04-03T05:12:34;2.20;99.90
20654;DHT22;21083;50.898;4.902;2023-04-03T05:15:01;2.20;99.90
20654;DHT22;21083;50.898;4.902;2023-04-03T05:17:30;2.20;99.90
20654;DHT22;21083;50.898;4.902;2023-04-03T05:19:56;2.20;99.90
20654;DHT22;21083;50.898;4.902;2023-04-03T05:22:23;2.20;99.90
20654;DHT22;21083;50.898;4.902;2023-04-03T05:24:50;2.10;99.90
20654;DHT22;21083;50.898;4.902;2023-04-03T05:27:17;2.10;99.90
20654;DHT22;21083;50.898;4.902;2023-04-03T05:29:44;2.20;99.90
20654;DHT22;21083;50.898;4.902;2023-04-03T05:32:11;2.10;99.90
20654;DHT22;21083;50.898;4.902;2023-04-03T05:34:40;2.10;99.90
20654;DHT22;21083;50.898;4.902;2023-04-03T05:37:07;2.20;99.90
20654;DHT22;21083;50.898;4.902;2023-04-03T05:39:34;2.20;99.90
20654;DHT22;21083;50.898;4.902;2023-04-03T05:42:02;2.20;99.90
20654;DHT22;21083;50.898;4.902;2023-04-03T05:44:28;2.20;99.90
20654;DHT22;21083;50.898;4.902;2023-04-03T05:46:55;2.20;99.90
20654;DHT22;21083;50.898;4.902;2023-04-03T05:49:22;2.20;99.90
20654;DHT22;21083;50.898;4.902;2023-04-03T05:51:51;2.20;99.90
20654;DHT22;21083;50.898;4.902;2023-04-03T05:54:20;2.20;99.90
20654;DHT22;21083;50.898;4.902;2023-04-03T05:56:50;2.20;99.90
20654;DHT22;21083;50.898;4.902;2023-04-03T05:59:20;2.20;99.90
20654;DHT22;21083;50.898;4.902;2023-04-03T06:01:48;2.30;99.90
20654;DHT22;21083;50.898;4.902;2023-04-03T06:04:15;2.30;99.90
20654;DHT22;21083;50.898;4.902;2023-04-03T06:06:44;2.30;99.90
20654;DHT22;21083;50.898;4.902;2023-04-03T06:09:13;2.30;99.90
20654;DHT22;21083;50.898;4.902;2023-04-03T06:11:41;2.30;99.90
20654;DHT22;21083;50.898;4.902;2023-04-03T06:14:08;2.30;99.90
20654;DHT22;21083;50.898;4.902;2023-04-03T06:16:36;2.40;99.90
20654;DHT22;21083;50.898;4.902;2023-04-03T06:19:03;2.40;99.90
20654;DHT22;21083;50.898;4.902;2023-04-03T06:21:31;2.60;99.90
20654;DHT22;21083;50.898;4.902;2023-04-03T06:23:59;2.50;99.90
20654;DHT22;21083;50.898;4.902;2023-04-03T06:26:27;2.60;99.90
20654;DHT22;21083;50.898;4.902;2023-04-03T06:28:55;2.60;99.90
20654;DHT22;21083;50.898;4.902;2023-04-03T06:31:23;2.70;99.90
20654;DHT22;21083;50.898;4.902;2023-04-03T06:33:50;2.80;99.90
20654;DHT22;21083;50.898;4.902;2023-04-03T06:36:18;2.90;99.90
20654;DHT22;21083;50.898;4.902;2023-04-03T06:38:46;3.00;99.90
20654;DHT22;21083;50.898;4.902;2023-04-03T06:41:13;3.00;99.90
20654;DHT22;21083;50.898;4.902;2023-04-03T06:43:43;3.00;99.90
20654;DHT22;21083;50.898;4.902;2023-04-03T06:46:14;3.10;99.90
20654;DHT22;21083;50.898;4.902;2023-04-03T06:48:42;3.20;99.90
20654;DHT22;21083;50.898;4.902;2023-04-03T06:51:17;3.30;99.90
20654;DHT22;21083;50.898;4.902;2023-04-03T06:53:44;3.50;99.90
20654;DHT22;21083;50.898;4.902;2023-04-03T06:56:12;3.60;99.90
20654;DHT22;21083;50.898;4.902;2023-04-03T06:58:39;3.50;99.90
20654;DHT22;21083;50.898;4.902;2023-04-03T07:01:08;3.60;99.90
20654;DHT22;21083;50.898;4.902;2023-04-03T07:03:36;3.70;99.90
20654;DHT22;21083;50.898;4.902;2023-04-03T07:06:03;3.90;99.90
20654;DHT22;21083;50.898;4.902;2023-04-03T07:08:30;4.10;99.90
20654;DHT22;21083;50.898;4.902;2023-04-03T07:10:57;4.10;99.90
20654;DHT22;21083;50.898;4.902;2023-04-03T07:13:25;4.10;99.90
20654;DHT22;21083;50.898;4.902;2023-04-03T07:15:52;4.20;99.90
20654;DHT22;21083;50.898;4.902;2023-04-03T07:18:20;4.30;99.90
20654;DHT22;21083;50.898;4.902;2023-04-03T07:20:48;4.60;99.90
20654;DHT22;21083;50.898;4.902;2023-04-03T07:23:15;4.60;99.90
20654;DHT22;21083;50.898;4.902;2023-04-03T07:25:43;4.60;99.90
20654;DHT22;21083;50.898;4.902;2023-04-03T07:28:10;4.80;99.90
20654;DHT22;21083;50.898;4.902;2023-04-03T07:30:43;4.80;99.90
20654;DHT22;21083;50.898;4.902;2023-04-03T07:33:10;5.00;99.90
20654;DHT22;21083;50.898;4.902;2023-04-03T07:35:40;5.10;99.90
20654;DHT22;21083;50.898;4.902;2023-04-03T07:38:08;5.10;99.90
20654;DHT22;21083;50.898;4.902;2023-04-03T07:40:35;5.00;99.90
20654;DHT22;21083;50.898;4.902;2023-04-03T07:43:03;5.20;99.90
20654;DHT22;21083;50.898;4.902;2023-04-03T07:45:31;5.30;99.90
20654;DHT22;21083;50.898;4.902;2023-04-03T07:47:58;5.50;99.90
20654;DHT22;21083;50.898;4.902;2023-04-03T07:50:25;5.50;99.90
20654;DHT22;21083;50.898;4.902;2023-04-03T07:52:54;5.50;99.90
20654;DHT22;21083;50.898;4.902;2023-04-03T07:55:21;5.60;99.90
20654;DHT22;21083;50.898;4.902;2023-04-03T07:57:48;5.80;99.90
20654;DHT22;21083;50.898;4.902;2023-04-03T08:00:16;5.80;99.90
20654;DHT22;21083;50.898;4.902;2023-04-03T08:02:45;5.90;99.90
20654;DHT22;21083;50.898;4.902;2023-04-03T08:05:16;6.10;99.90
20654;DHT22;21083;50.898;4.902;2023-04-03T08:07:43;6.20;99.90
20654;DHT22;21083;50.898;4.902;2023-04-03T08:10:11;6.30;99.90
20654;DHT22;21083;50.898;4.902;2023-04-03T08:12:38;6.30;99.90
20654;DHT22;21083;50.898;4.902;2023-04-03T08:15:06;6.30;99.90
20654;DHT22;21083;50.898;4.902;2023-04-03T08:17:35;6.60;99.90
20654;DHT22;21083;50.898;4.902;2023-04-03T08:20:06;6.70;99.90
20654;DHT22;21083;50.898;4.902;2023-04-03T08:22:34;6.70;99.90
20654;DHT22;21083;50.898;4.902;2023-04-03T08:25:01;6.80;99.90
20654;DHT22;21083;50.898;4.902;2023-04-03T08:27:30;6.90;99.90
20654;DHT22;21083;50.898;4.902;2023-04-03T08:29:56;7.00;99.90
20654;DHT22;21083;50.898;4.902;2023-04-03T08:32:24;7.00;99.90
20654;DHT22;21083;50.898;4.902;2023-04-03T08:34:53;7.10;99.90
20654;DHT22;21083;50.898;4.902;2023-04-03T08:37:21;7.40;99.90
20654;DHT22;21083;50.898;4.902;2023-04-03T08:39:51;7.50;99.90
20654;DHT22;21083;50.898;4.902;2023-04-03T08:42:27;7.60;99.90
20654;DHT22;21083;50.898;4.902;2023-04-03T08:45:01;7.60;99.90
20654;DHT22;21083;50.898;4.902;2023-04-03T08:47:38;7.80;99.90
20654;DHT22;21083;50.898;4.902;2023-04-03T08:50:12;7.80;99.90
20654;DHT22;21083;50.898;4.902;2023-04-03T08:52:42;7.90;99.90
20654;DHT22;21083;50.898;4.902;2023-04-03T08:55:20;8.00;99.90
20654;DHT22;21083;50.898;4.902;2023-04-03T08:57:49;8.10;99.90
20654;DHT22;21083;50.898;4.902;2023-04-03T09:00:22;8.30;99.90
20654;DHT22;21083;50.898;4.902;2023-04-03T09:02:53;8.40;99.90
20654;DHT22;21083;50.898;4.902;2023-04-03T09:05:30;8.60;99.90
20654;DHT22;21083;50.898;4.902;2023-04-03T09:08:04;8.60;99.90
20654;DHT22;21083;50.898;4.902;2023-04-03T09:10:37;8.70;99.90
20654;DHT22;21083;50.898;4.902;2023-04-03T09:13:10;8.90;99.90
20654;DHT22;21083;50.898;4.902;2023-04-03T09:15:40;9.10;99.90
20654;DHT22;21083;50.898;4.902;2023-04-03T09:18:14;9.30;99.90
20654;DHT22;21083;50.898;4.902;2023-04-03T09:20:48;9.30;99.90
20654;DHT22;21083;50.898;4.902;2023-04-03T09:23:22;9.40;99.90
20654;DHT22;21083;50.898;4.902;2023-04-03T09:25:56;9.60;99.90
20654;DHT22;21083;50.898;4.902;2023-04-03T09:28:24;9.70;99.90
20654;DHT22;21083;50.898;4.902;2023-04-03T09:30:54;9.80;99.90
20654;DHT22;21083;50.898;4.902;2023-04-03T09:33:21;9.90;99.90
20654;DHT22;21083;50.898;4.902;2023-04-03T09:35:50;9.80;99.90
20654;DHT22;21083;50.898;4.902;2023-04-03T09:38:19;10.00;99.90
20654;DHT22;21083;50.898;4.902;2023-04-03T09:40:48;10.10;99.90
20654;DHT22;21083;50.898;4.902;2023-04-03T09:43:26;10.10;99.90
20654;DHT22;21083;50.898;4.902;2023-04-03T09:45:55;10.30;99.90
20654;DHT22;21083;50.898;4.902;2023-04-03T09:48:24;10.50;99.90
20654;DHT22;21083;50.898;4.902;2023-04-03T09:51:00;10.60;99.90
20654;DHT22;21083;50.898;4.902;2023-04-03T09:53:34;10.80;99.90
20654;DHT22;21083;50.898;4.902;2023-04-03T09:56:04;10.80;99.90
20654;DHT22;21083;50.898;4.902;2023-04-03T09:58:36;11.10;99.90
20654;DHT22;21083;50.898;4.902;2023-04-03T10:01:22;11.10;99.90
20654;DHT22;21083;50.898;4.902;2023-04-03T10:04:07;11.10;99.90
20654;DHT22;21083;50.898;4.902;2023-04-03T10:06:37;11.40;99.90
20654;DHT22;21083;50.898;4.902;2023-04-03T10:09:19;11.70;99.90
20654;DHT22;21083;50.898;4.902;2023-04-03T10:12:01;11.80;99.90
20654;DHT22;21083;50.898;4.902;2023-04-03T10:14:33;11.90;99.90
20654;DHT22;21083;50.898;4.902;2023-04-03T10:17:16;11.90;99.90
20654;DHT22;21083;50.898;4.902;2023-04-03T10:19:48;11.80;99.90
20654;DHT22;21083;50.898;4.902;2023-04-03T10:22:20;11.90;99.90
20654;DHT22;21083;50.898;4.902;2023-04-03T10:24:54;12.10;99.90
20654;DHT22;21083;50.898;4.902;2023-04-03T10:27:32;12.20;99.90
20654;DHT22;21083;50.898;4.902;2023-04-03T10:30:10;12.30;99.90
20654;DHT22;21083;50.898;4.902;2023-04-03T10:32:50;12.20;99.90
20654;DHT22;21083;50.898;4.902;2023-04-03T10:35:29;12.50;99.90
20654;DHT22;21083;50.898;4.902;2023-04-03T10:38:04;12.60;99.90
20654;DHT22;21083;50.898;4.902;2023-04-03T10:40:39;12.60;99.90
20654;DHT22;21083;50.898;4.902;2023-04-03T10:43:15;12.60;99.90
20654;DHT22;21083;50.898;4.902;2023-04-03T10:45:53;12.80;99.90
20654;DHT22;21083;50.898;4.902;2023-04-03T10:48:33;12.80;99.90
20654;DHT22;21083;50.898;4.902;2023-04-03T10:51:14;12.70;99.90
20654;DHT22;21083;50.898;4.902;2023-04-03T10:53:47;12.80;99.90
20654;DHT22;21083;50.898;4.902;2023-04-03T10:56:19;12.80;99.90
20654;DHT22;21083;50.898;4.902;2023-04-03T10:58:49;13.10;99.90
20654;DHT22;21083;50.898;4.902;2023-04-03T11:01:22;13.30;99.90
20654;DHT22;21083;50.898;4.902;2023-04-03T11:03:54;13.50;99.90
20654;DHT22;21083;50.898;4.902;2023-04-03T11:06:25;13.70;99.90
20654;DHT22;21083;50.898;4.902;2023-04-03T11:08:57;13.70;99.90
20654;DHT22;21083;50.898;4.902;2023-04-03T11:11:31;13.60;99.90
20654;DHT22;21083;50.898;4.902;2023-04-03T11:14:02;13.70;99.90
20654;DHT22;21083;50.898;4.902;2023-04-03T11:16:33;13.60;99.90
20654;DHT22;21083;50.898;4.902;2023-04-03T11:19:10;13.70;99.90
20654;DHT22;21083;50.898;4.902;2023-04-03T11:21:42;13.70;99.90
20654;DHT22;21083;50.898;4.902;2023-04-03T11:24:17;13.80;99.90
20654;DHT22;21083;50.898;4.902;2023-04-03T11:26:49;14.00;99.90
20654;DHT22;21083;50.898;4.902;2023-04-03T11:29:20;14.00;99.90
20654;DHT22;21083;50.898;4.902;2023-04-03T11:32:05;14.00;99.90
20654;DHT22;21083;50.898;4.902;2023-04-03T11:34:37;14.20;99.90
20654;DHT22;21083;50.898;4.902;2023-04-03T11:37:13;14.30;99.90
20654;DHT22;21083;50.898;4.902;2023-04-03T11:39:50;14.50;99.90
20654;DHT22;21083;50.898;4.902;2023-04-03T11:42:29;14.70;99.90
20654;DHT22;21083;50.898;4.902;2023-04-03T11:45:25;14.70;99.90
20654;DHT22;21083;50.898;4.902;2023-04-03T11:47:54;14.50;99.90
20654;DHT22;21083;50.898;4.902;2023-04-03T11:50:43;14.70;99.90
20654;DHT22;21083;50.898;4.902;2023-04-03T11:53:34;14.60;99.90
20654;DHT22;21083;50.898;4.902;2023-04-03T11:56:29;14.70;99.90
20654;DHT22;21083;50.898;4.902;2023-04-03T11:59:22;14.70;99.90
20654;DHT22;21083;50.898;4.902;2023-04-03T12:01:51;14.90;99.90
20654;DHT22;21083;50.898;4.902;2023-04-03T12:04:20;15.00;99.90
20654;DHT22;21083;50.898;4.902;2023-04-03T12:07:16;15.20;99.90
20654;DHT22;21083;50.898;4.902;2023-04-03T12:10:15;15.40;99.90
20654;DHT22;21083;50.898;4.902;2023-04-03T12:12:43;15.40;99.90
20654;DHT22;21083;50.898;4.902;2023-04-03T12:21:16;15.80;99.90
20654;DHT22;21083;50.898;4.902;2023-04-03T12:24:02;15.90;99.90
20654;DHT22;21083;50.898;4.902;2023-04-03T12:26:32;16.10;99.90
20654;DHT22;21083;50.898;4.902;2023-04-03T12:29:02;16.40;99.90
20654;DHT22;21083;50.898;4.902;2023-04-03T12:31:43;16.50;99.90
20654;DHT22;21083;50.898;4.902;2023-04-03T12:34:23;16.50;99.90
20654;DHT22;21083;50.898;4.902;2023-04-03T12:37:00;16.70;99.90
20654;DHT22;21083;50.898;4.902;2023-04-03T12:39:47;16.80;99.90
20654;DHT22;21083;50.898;4.902;2023-04-03T12:42:55;16.80;99.90
20654;DHT22;21083;50.898;4.902;2023-04-03T12:45:25;16.90;99.90
20654;DHT22;21083;50.898;4.902;2023-04-03T12:47:54;16.80;99.90
20654;DHT22;21083;50.898;4.902;2023-04-03T12:50:23;17.00;99.90
20654;DHT22;21083;50.898;4.902;2023-04-03T12:53:02;17.00;99.90
20654;DHT22;21083;50.898;4.902;2023-04-03T12:55:32;17.20;99.90
20654;DHT22;21083;50.898;4.902;2023-04-03T12:58:14;17.10;99.90
20654;DHT22;21083;50.898;4.902;2023-04-03T13:00:41;17.30;99.90
20654;DHT22;21083;50.898;4.902;2023-04-03T13:03:21;17.20;99.90
20654;DHT22;21083;50.898;4.902;2023-04-03T13:05:50;17.20;99.90
20654;DHT22;21083;50.898;4.902;2023-04-03T13:08:17;17.20;99.90
20654;DHT22;21083;50.898;4.902;2023-04-03T13:10:54;17.50;99.90
20654;DHT22;21083;50.898;4.902;2023-04-03T13:13:23;17.70;99.90
20654;DHT22;21083;50.898;4.902;2023-04-03T13:15:52;17.60;99.90
20654;DHT22;21083;50.898;4.902;2023-04-03T13:18:29;17.50;99.90
20654;DHT22;21083;50.898;4.902;2023-04-03T13:21:01;17.40;99.90
20654;DHT22;21083;50.898;4.902;2023-04-03T13:23:30;17.30;99.90
20654;DHT22;21083;50.898;4.902;2023-04-03T13:25:58;17.50;99.90
20654;DHT22;21083;50.898;4.902;2023-04-03T13:28:30;17.70;99.90
20654;DHT22;21083;50.898;4.902;2023-04-03T13:31:04;17.90;99.90
20654;DHT22;21083;50.898;4.902;2023-04-03T13:33:34;17.70;99.90
20654;DHT22;21083;50.898;4.902;2023-04-03T13:36:05;17.50;99.90
20654;DHT22;21083;50.898;4.902;2023-04-03T13:38:33;17.80;99.90
20654;DHT22;21083;50.898;4.902;2023-04-03T13:41:20;17.90;99.90
20654;DHT22;21083;50.898;4.902;2023-04-03T13:43:48;17.90;99.90
20654;DHT22;21083;50.898;4.902;2023-04-03T13:46:26;17.70;99.90
20654;DHT22;21083;50.898;4.902;2023-04-03T13:48:54;17.90;99.90
20654;DHT22;21083;50.898;4.902;2023-04-03T13:51:24;18.30;99.90
20654;DHT22;21083;50.898;4.902;2023-04-03T13:53:54;18.50;99.90
20654;DHT22;21083;50.898;4.902;2023-04-03T13:56:33;18.50;99.90
20654;DHT22;21083;50.898;4.902;2023-04-03T13:59:21;18.50;99.90
20654;DHT22;21083;50.898;4.902;2023-04-03T14:01:51;18.70;99.90
20654;DHT22;21083;50.898;4.902;2023-04-03T14:04:22;18.80;99.90
20654;DHT22;21083;50.898;4.902;2023-04-03T14:06:49;18.70;99.90
20654;DHT22;21083;50.898;4.902;2023-04-03T14:09:18;18.90;99.90
20654;DHT22;21083;50.898;4.902;2023-04-03T14:11:47;18.60;99.90
20654;DHT22;21083;50.898;4.902;2023-04-03T14:14:17;18.90;99.90
20654;DHT22;21083;50.898;4.902;2023-04-03T14:16:48;19.00;99.90
20654;DHT22;21083;50.898;4.902;2023-04-03T14:19:22;18.70;99.90
20654;DHT22;21083;50.898;4.902;2023-04-03T14:21:49;18.30;99.90
20654;DHT22;21083;50.898;4.902;2023-04-03T14:24:18;18.30;99.90
20654;DHT22;21083;50.898;4.902;2023-04-03T14:26:48;18.40;99.90
20654;DHT22;21083;50.898;4.902;2023-04-03T14:29:15;18.50;99.90
20654;DHT22;21083;50.898;4.902;2023-04-03T14:31:44;18.50;99.90
20654;DHT22;21083;50.898;4.902;2023-04-03T14:34:11;18.30;99.90
20654;DHT22;21083;50.898;4.902;2023-04-03T14:36:39;18.50;99.90
20654;DHT22;21083;50.898;4.902;2023-04-03T14:39:11;18.60;99.90
20654;DHT22;21083;50.898;4.902;2023-04-03T14:41:44;18.90;99.90
20654;DHT22;21083;50.898;4.902;2023-04-03T14:44:13;19.00;99.90
20654;DHT22;21083;50.898;4.902;2023-04-03T14:46:42;18.90;99.90
20654;DHT22;21083;50.898;4.902;2023-04-03T14:49:12;19.00;99.90
20654;DHT22;21083;50.898;4.902;2023-04-03T14:51:40;18.80;99.90
20654;DHT22;21083;50.898;4.902;2023-04-03T14:54:12;19.00;99.90
20654;DHT22;21083;50.898;4.902;2023-04-03T14:56:40;19.10;99.90
20654;DHT22;21083;50.898;4.902;2023-04-03T14:59:09;19.30;99.90
20654;DHT22;21083;50.898;4.902;2023-04-03T15:01:39;19.40;99.90
20654;DHT22;21083;50.898;4.902;2023-04-03T15:04:10;19.60;99.90
20654;DHT22;21083;50.898;4.902;2023-04-03T15:06:39;19.70;99.90
20654;DHT22;21083;50.898;4.902;2023-04-03T15:09:12;19.70;99.90
20654;DHT22;21083;50.898;4.902;2023-04-03T15:11:43;19.80;99.90
20654;DHT22;21083;50.898;4.902;2023-04-03T15:14:10;19.90;99.90
20654;DHT22;21083;50.898;4.902;2023-04-03T15:16:39;20.00;99.70
20654;DHT22;21083;50.898;4.902;2023-04-03T15:19:07;20.00;99.00
20654;DHT22;21083;50.898;4.902;2023-04-03T15:21:35;19.90;99.90
20654;DHT22;21083;50.898;4.902;2023-04-03T15:24:02;19.80;98.70
20654;DHT22;21083;50.898;4.902;2023-04-03T15:26:29;19.80;99.90
20654;DHT22;21083;50.898;4.902;2023-04-03T15:28:56;19.90;99.90
20654;DHT22;21083;50.898;4.902;2023-04-03T15:31:23;19.80;99.90
20654;DHT22;21083;50.898;4.902;2023-04-03T15:33:51;19.70;99.90
20654;DHT22;21083;50.898;4.902;2023-04-03T15:36:18;19.60;99.90
20654;DHT22;21083;50.898;4.902;2023-04-03T15:38:45;19.60;99.30
20654;DHT22;21083;50.898;4.902;2023-04-03T15:41:12;19.60;99.90
20654;DHT22;21083;50.898;4.902;2023-04-03T15:43:39;19.60;98.70
20654;DHT22;21083;50.898;4.902;2023-04-03T15:46:06;20.00;98.60
20654;DHT22;21083;50.898;4.902;2023-04-03T15:48:33;20.20;99.90
20654;DHT22;21083;50.898;4.902;2023-04-03T15:51:02;20.10;99.40
20654;DHT22;21083;50.898;4.902;2023-04-03T15:53:29;20.30;98.30
20654;DHT22;21083;50.898;4.902;2023-04-03T15:55:56;20.40;99.90
20654;DHT22;21083;50.898;4.902;2023-04-03T15:58:23;20.70;99.00
20654;DHT22;21083;50.898;4.902;2023-04-03T16:00:51;20.90;99.90
20654;DHT22;21083;50.898;4.902;2023-04-03T16:03:20;21.20;97.80
20654;DHT22;21083;50.898;4.902;2023-04-03T16:05:47;21.00;95.90
20654;DHT22;21083;50.898;4.902;2023-04-03T16:08:18;20.80;98.70